Time;durP1;ratioP1;P1;durP2;ratioP2;P2;SDS_P1;SDS_P2;PMS_P1;PMS_P2;Temp;Humidity;BMP_temperature;BMP_pressure;BME280_temperature;BME280_humidity;BME280_pressure;Samples;Min_cycle;Max_cycle;Signal;HPM_P1;HPM_P2
2023/01/10 00:01:37;;;;;;;12.85;3.60;;;;;;;;;;5094375;28;20017;-29
2023/01/10 00:04:03;;;;;;;8.80;2.78;;;;;;;;;;5094228;28;20048;-30
2023/01/10 00:06:29;;;;;;;8.80;2.63;;;;;;;;;;5094350;28;20027;-28
2023/01/10 00:08:56;;;;;;;20.10;3.88;;;;;;;;;;5094589;28;20028;-27
2023/01/10 00:14:07;;;;;;;7.18;2.72;;;;;;;;;;5094565;28;20046;-27
2023/01/10 00:16:35;;;;;;;11.75;3.30;;;;;;;;;;5094233;28;20032;-27
2023/01/10 00:19:02;;;;;;;10.52;2.42;;;;;;;;;;5096542;28;20016;-28
2023/01/10 00:21:29;;;;;;;4.53;2.17;;;;;;;;;;5098383;28;19941;-28
2023/01/10 00:24:07;;;;;;;7.97;2.22;;;;;;;;;;5098290;28;20354;-28
2023/01/10 00:26:33;;;;;;;7.78;2.38;;;;;;;;;;5098047;28;20111;-28
2023/01/10 00:28:59;;;;;;;7.97;2.63;;;;;;;;;;5097890;28;20082;-27
2023/01/10 00:31:26;;;;;;;9.77;3.22;;;;;;;;;;5098168;28;20032;-27
2023/01/10 00:33:52;;;;;;;8.57;2.10;;;;;;;;;;5098059;28;20424;-27
2023/01/10 00:36:18;;;;;;;12.18;3.67;;;;;;;;;;5097830;28;20028;-28
2023/01/10 00:38:44;;;;;;;8.57;3.45;;;;;;;;;;5098058;28;20035;-27
2023/01/10 00:43:55;;;;;;;6.55;3.53;;;;;;;;;;5097599;28;20040;-27
2023/01/10 00:43:56;;;;;;;13.25;3.10;;;;;;;;;;5097636;28;20438;-28
2023/01/10 00:46:23;;;;;;;11.57;2.88;;;;;;;;;;5080251;28;20396;-29
2023/01/10 00:48:49;;;;;;;8.30;2.78;;;;;;;;;;5097838;28;20020;-28
2023/01/10 00:51:15;;;;;;;10.07;3.67;;;;;;;;;;5097524;28;20047;-28
2023/01/10 00:53:41;;;;;;;11.80;2.42;;;;;;;;;;5097770;28;20433;-27
2023/01/10 00:56:07;;;;;;;8.07;2.35;;;;;;;;;;5097466;28;20028;-27
2023/01/10 00:58:34;;;;;;;13.65;2.58;;;;;;;;;;5097429;28;20451;-28
2023/01/10 01:01:00;;;;;;;4.20;1.95;;;;;;;;;;5097573;28;20043;-27
2023/01/10 01:03:26;;;;;;;6.68;2.47;;;;;;;;;;5096988;28;20044;-28
2023/01/10 01:05:52;;;;;;;7.53;2.63;;;;;;;;;;5097267;28;20028;-28
2023/01/10 01:08:19;;;;;;;6.28;2.63;;;;;;;;;;5097521;28;20066;-28
2023/01/10 01:10:45;;;;;;;10.13;2.78;;;;;;;;;;5097421;28;20066;-27
2023/01/10 01:13:17;;;;;;;10.63;3.78;;;;;;;;;;5097052;28;20358;-27
2023/01/10 01:15:43;;;;;;;7.63;2.00;;;;;;;;;;5097412;28;20092;-27
2023/01/10 01:18:11;;;;;;;7.75;2.67;;;;;;;;;;5096986;28;20027;-27
2023/01/10 01:20:38;;;;;;;4.57;2.13;;;;;;;;;;5097165;28;20028;-27
2023/01/10 01:23:05;;;;;;;11.35;2.20;;;;;;;;;;5096824;28;20024;-27
2023/01/10 01:25:31;;;;;;;3.97;2.30;;;;;;;;;;5096917;28;20355;-27
2023/01/10 01:27:57;;;;;;;11.40;3.38;;;;;;;;;;5097127;28;20024;-27
2023/01/10 01:30:23;;;;;;;7.05;2.45;;;;;;;;;;5096338;28;20046;-28
2023/01/10 01:32:49;;;;;;;8.55;3.05;;;;;;;;;;5096679;28;20035;-28
2023/01/10 01:35:16;;;;;;;7.70;2.15;;;;;;;;;;5096961;28;20024;-28
2023/01/10 01:37:43;;;;;;;4.30;2.20;;;;;;;;;;5096682;28;20105;-27
2023/01/10 01:40:16;;;;;;;11.57;2.17;;;;;;;;;;5078922;28;20094;-27
2023/01/10 01:42:43;;;;;;;4.25;2.20;;;;;;;;;;5096418;28;20043;-27
2023/01/10 01:45:10;;;;;;;6.78;2.10;;;;;;;;;;5096497;28;20024;-27
2023/01/10 01:47:48;;;;;;;9.57;3.85;;;;;;;;;;5096710;28;20039;-26
2023/01/10 01:50:15;;;;;;;11.30;2.88;;;;;;;;;;5096425;28;20336;-27
2023/01/10 01:52:41;;;;;;;5.60;2.50;;;;;;;;;;5096590;28;20089;-27
2023/01/10 01:55:07;;;;;;;7.10;2.65;;;;;;;;;;5078466;28;20036;-27
2023/01/10 01:57:34;;;;;;;10.48;2.38;;;;;;;;;;5096239;28;20024;-27
2023/01/10 02:00:03;;;;;;;6.53;2.15;;;;;;;;;;5096441;28;20043;-26
2023/01/10 02:02:32;;;;;;;4.68;2.22;;;;;;;;;;5096006;28;20032;-26
2023/01/10 02:05:02;;;;;;;5.68;2.50;;;;;;;;;;5096107;28;20044;-27
2023/01/10 02:07:33;;;;;;;9.48;2.80;;;;;;;;;;5096105;28;20367;-33
2023/01/10 02:10:32;;;;;;;5.05;2.75;;;;;;;;;;5096068;28;20028;-27
2023/01/10 02:13:00;;;;;;;9.23;2.38;;;;;;;;;;5062374;28;20420;-27
2023/01/10 02:15:27;;;;;;;6.90;2.75;;;;;;;;;;5095912;28;20032;-28
2023/01/10 02:17:53;;;;;;;8.88;2.63;;;;;;;;;;5095839;28;20497;-28
2023/01/10 02:20:21;;;;;;;5.10;2.17;;;;;;;;;;5095676;28;20020;-27
2023/01/10 02:22:59;;;;;;;6.43;2.30;;;;;;;;;;5095664;28;20064;-27
2023/01/10 02:25:34;;;;;;;3.90;1.92;;;;;;;;;;5095729;28;20020;-27
2023/01/10 02:28:23;;;;;;;7.32;2.08;;;;;;;;;;5095695;28;20024;-28
2023/01/10 02:31:15;;;;;;;13.00;2.75;;;;;;;;;;5094620;28;20071;-27
2023/01/10 02:33:54;;;;;;;4.65;2.60;;;;;;;;;;5095600;28;20043;-27
2023/01/10 02:36:21;;;;;;;5.40;1.80;;;;;;;;;;5095854;28;20020;-27
2023/01/10 02:38:53;;;;;;;7.20;2.08;;;;;;;;;;5095734;28;20340;-27
2023/01/10 02:41:26;;;;;;;4.22;1.90;;;;;;;;;;5094607;28;20098;-27
2023/01/10 02:44:12;;;;;;;7.78;2.55;;;;;;;;;;5077549;28;20027;-27
2023/01/10 02:46:39;;;;;;;8.65;2.60;;;;;;;;;;5084910;28;20443;-28
2023/01/10 02:49:05;;;;;;;5.28;2.30;;;;;;;;;;5095276;28;20028;-27
2023/01/10 02:51:32;;;;;;;6.03;2.05;;;;;;;;;;5095535;28;20089;-27
2023/01/10 02:54:06;;;;;;;5.40;2.60;;;;;;;;;;5095143;28;20035;-27
2023/01/10 02:56:42;;;;;;;4.80;1.73;;;;;;;;;;5077893;28;20046;-27
2023/01/10 02:59:27;;;;;;;4.93;2.20;;;;;;;;;;5095386;28;20028;-28
2023/01/10 03:01:59;;;;;;;4.22;2.08;;;;;;;;;;5077190;28;20036;-27
2023/01/10 03:04:28;;;;;;;2.58;1.98;;;;;;;;;;5094942;28;20079;-27
2023/01/10 03:06:58;;;;;;;7.32;2.65;;;;;;;;;;5095313;28;20031;-27
2023/01/10 03:09:29;;;;;;;5.40;2.10;;;;;;;;;;5095022;28;20347;-27
2023/01/10 03:12:01;;;;;;;4.72;2.05;;;;;;;;;;5095215;28;20069;-27
2023/01/10 03:14:28;;;;;;;7.03;4.18;;;;;;;;;;5095221;28;20044;-27
2023/01/10 03:16:59;;;;;;;4.70;2.55;;;;;;;;;;5094896;28;20034;-28
2023/01/10 03:19:25;;;;;;;;;;;;;;;;;;5095201;28;20028;-27
2023/01/10 03:21:54;;;;;;;3.63;1.85;;;;;;;;;;5076920;28;20370;-27
2023/01/10 03:24:24;;;;;;;5.72;2.40;;;;;;;;;;5094711;28;20085;-27
2023/01/10 03:27:02;;;;;;;6.63;2.08;;;;;;;;;;5094792;28;20089;-27
2023/01/10 03:29:30;;;;;;;4.97;2.10;;;;;;;;;;5094685;28;20040;-27
2023/01/10 03:32:01;;;;;;;4.38;1.83;;;;;;;;;;5094618;28;20024;-27
2023/01/10 03:34:28;;;;;;;4.25;2.08;;;;;;;;;;5095268;28;20414;-29
2023/01/10 03:37:05;;;;;;;6.55;3.15;;;;;;;;;;5077127;28;20032;-27
2023/01/10 03:39:41;;;;;;;6.32;2.47;;;;;;;;;;5094879;28;20051;-27
2023/01/10 03:42:10;;;;;;;3.67;1.73;;;;;;;;;;5077294;28;20031;-27
2023/01/10 03:44:42;;;;;;;4.90;2.10;;;;;;;;;;5094865;28;20016;-28
2023/01/10 03:47:11;;;;;;;6.25;2.28;;;;;;;;;;5094917;28;20024;-27
2023/01/10 03:49:39;;;;;;;4.88;1.92;;;;;;;;;;5094766;28;20024;-27
2023/01/10 03:52:06;;;;;;;8.93;3.40;;;;;;;;;;5095653;28;20028;-27
2023/01/10 03:54:33;;;;;;;8.13;2.38;;;;;;;;;;5098632;28;20063;-27
2023/01/10 03:56:59;;;;;;;6.30;2.10;;;;;;;;;;5098610;28;20077;-27
2023/01/10 03:59:26;;;;;;;4.78;2.05;;;;;;;;;;5098358;28;20024;-27
2023/01/10 04:01:52;;;;;;;4.20;1.85;;;;;;;;;;5080569;28;20036;-27
2023/01/10 04:04:19;;;;;;;4.80;2.97;;;;;;;;;;5098238;28;20474;-27
2023/01/10 04:06:45;;;;;;;5.18;2.15;;;;;;;;;;5098682;28;20027;-28
2023/01/10 04:09:11;;;;;;;4.90;2.35;;;;;;;;;;5080538;28;20073;-28
2023/01/10 04:11:37;;;;;;;5.18;2.60;;;;;;;;;;5098314;28;20092;-27
2023/01/10 04:14:03;;;;;;;4.38;2.15;;;;;;;;;;5098439;28;20020;-27
2023/01/10 04:16:30;;;;;;;3.42;1.70;;;;;;;;;;5098242;28;20058;-27
2023/01/10 04:18:56;;;;;;;9.05;2.65;;;;;;;;;;5098724;28;20081;-27
2023/01/10 04:21:22;;;;;;;9.73;2.65;;;;;;;;;;5098027;28;20051;-27
2023/01/10 04:23:48;;;;;;;6.40;2.47;;;;;;;;;;5098066;28;20020;-27
2023/01/10 04:26:14;;;;;;;4.55;2.38;;;;;;;;;;5098077;28;20035;-27
2023/01/10 04:28:41;;;;;;;7.28;2.55;;;;;;;;;;5080439;28;20328;-27
2023/01/10 04:31:07;;;;;;;6.30;2.25;;;;;;;;;;5098259;28;20043;-27
2023/01/10 04:33:33;;;;;;;5.78;2.38;;;;;;;;;;5098116;28;20038;-27
2023/01/10 04:35:59;;;;;;;8.13;2.38;;;;;;;;;;5080085;28;20461;-28
2023/01/10 04:38:25;;;;;;;9.20;3.25;;;;;;;;;;5098063;28;20081;-26
2023/01/10 04:40:56;;;;;;;4.85;1.90;;;;;;;;;;5097647;28;20035;-27
2023/01/10 04:43:22;;;;;;;;;;;;;;;;;;5080468;28;20040;-27
2023/01/10 04:45:49;;;;;;;2.55;1.60;;;;;;;;;;5097684;28;19908;-26
2023/01/10 04:48:15;;;;;;;3.50;1.83;;;;;;;;;;5097549;28;20095;-28
2023/01/10 04:50:41;;;;;;;5.28;2.80;;;;;;;;;;5097515;28;20032;-28
2023/01/10 04:53:07;;;;;;;4.78;1.75;;;;;;;;;;5097407;28;20364;-28
2023/01/10 04:55:34;;;;;;;6.43;2.33;;;;;;;;;;5097352;28;20031;-27
2023/01/10 04:58:01;;;;;;;5.53;2.08;;;;;;;;;;5097510;28;20032;-29
2023/01/10 05:00:27;;;;;;;10.57;2.58;;;;;;;;;;5097237;28;20040;-30
2023/01/10 05:02:57;;;;;;;4.35;1.90;;;;;;;;;;5097052;28;20032;-30
2023/01/10 05:05:23;;;;;;;3.17;1.33;;;;;;;;;;5096673;28;20099;-29
2023/01/10 05:07:49;;;;;;;3.90;1.90;;;;;;;;;;5097160;28;20415;-30
2023/01/10 05:10:15;;;;;;;5.07;2.30;;;;;;;;;;5097045;28;20038;-30
2023/01/10 05:12:42;;;;;;;5.05;2.22;;;;;;;;;;5096857;28;20107;-29
2023/01/10 05:15:08;;;;;;;4.35;1.63;;;;;;;;;;5096989;28;20097;-30
2023/01/10 05:17:34;;;;;;;3.83;2.97;;;;;;;;;;5097304;28;20024;-29
2023/01/10 05:20:00;;;;;;;4.47;2.20;;;;;;;;;;5096748;28;20039;-30
2023/01/10 05:22:27;;;;;;;2.50;1.65;;;;;;;;;;5096858;28;20360;-30
2023/01/10 05:24:53;;;;;;;3.53;2.22;;;;;;;;;;5096476;28;20035;-30
2023/01/10 05:27:19;;;;;;;10.70;3.42;;;;;;;;;;5096422;28;20355;-30
2023/01/10 05:29:45;;;;;;;10.90;2.38;;;;;;;;;;5096333;28;20378;-30
2023/01/10 05:32:11;;;;;;;4.47;2.10;;;;;;;;;;5078399;28;20039;-28
2023/01/10 05:34:37;;;;;;;7.25;2.28;;;;;;;;;;5078103;28;20146;-29
2023/01/10 05:37:04;;;;;;;5.05;2.35;;;;;;;;;;5095878;28;20047;-29
2023/01/10 05:39:30;;;;;;;7.63;3.00;;;;;;;;;;5095776;28;20039;-30
2023/01/10 05:41:56;;;;;;;6.50;2.58;;;;;;;;;;5095761;28;20115;-29
2023/01/10 05:44:22;;;;;;;2.38;2.00;;;;;;;;;;5095964;28;20092;-29
2023/01/10 05:46:48;;;;;;;9.63;2.58;;;;;;;;;;5096042;28;20024;-30
2023/01/10 05:49:14;;;;;;;11.82;2.45;;;;;;;;;;5095916;28;20046;-30
2023/01/10 05:51:41;;;;;;;10.70;2.85;;;;;;;;;;5096754;28;20391;-29
2023/01/10 05:54:07;;;;;;;14.90;2.60;;;;;;;;;;5095710;28;20107;-29
2023/01/10 05:56:33;;;;;;;9.63;2.55;;;;;;;;;;5095742;28;20362;-30
2023/01/10 05:59:00;;;;;;;10.65;2.92;;;;;;;;;;5077824;28;20027;-28
2023/01/10 06:01:26;;;;;;;6.25;2.17;;;;;;;;;;5095817;28;20035;-28
2023/01/10 06:03:52;;;;;;;9.02;2.75;;;;;;;;;;5095817;28;20043;-28
2023/01/10 06:06:18;;;;;;;7.85;2.30;;;;;;;;;;5078074;28;20136;-28
2023/01/10 06:08:44;;;;;;;4.55;1.75;;;;;;;;;;5095721;28;20016;-29
2023/01/10 06:11:11;;;;;;;14.38;3.22;;;;;;;;;;5095599;28;20028;-28
2023/01/10 06:13:37;;;;;;;5.00;2.38;;;;;;;;;;5095319;28;20103;-28
2023/01/10 06:16:03;;;;;;;5.10;3.20;;;;;;;;;;5077703;28;20086;-28
2023/01/10 06:18:29;;;;;;;3.63;1.88;;;;;;;;;;5095442;28;20340;-29
2023/01/10 06:20:56;;;;;;;7.35;1.90;;;;;;;;;;5095290;28;20423;-29
2023/01/10 06:23:22;;;;;;;7.60;2.35;;;;;;;;;;5095610;28;20032;-29
2023/01/10 06:25:48;;;;;;;5.43;2.00;;;;;;;;;;5095405;28;20332;-28
2023/01/10 06:28:14;;;;;;;4.40;2.00;;;;;;;;;;5095207;28;20182;-29
2023/01/10 06:30:42;;;;;;;4.85;2.45;;;;;;;;;;5095123;28;20027;-31
2023/01/10 06:33:08;;;;;;;14.25;2.47;;;;;;;;;;5095118;28;20085;-28
2023/01/10 06:35:35;;;;;;;10.63;2.20;;;;;;;;;;5095042;28;20027;-28
2023/01/10 06:38:01;;;;;;;4.95;3.03;;;;;;;;;;5077094;28;20478;-29
2023/01/10 06:40:28;;;;;;;5.93;2.67;;;;;;;;;;5095092;28;20511;-28
2023/01/10 06:42:54;;;;;;;5.68;1.77;;;;;;;;;;5094869;28;20126;-28
2023/01/10 06:45:20;;;;;;;10.23;2.40;;;;;;;;;;5094868;28;20119;-28
2023/01/10 06:47:47;;;;;;;8.23;2.30;;;;;;;;;;5094828;28;20080;-28
2023/01/10 06:50:13;;;;;;;12.77;2.67;;;;;;;;;;5094841;28;20348;-28
2023/01/10 06:52:40;;;;;;;8.05;2.22;;;;;;;;;;5094623;28;20435;-28
2023/01/10 06:55:07;;;;;;;4.53;2.63;;;;;;;;;;5076906;28;20177;-29
2023/01/10 06:57:34;;;;;;;5.88;2.38;;;;;;;;;;5094584;28;20417;-29
2023/01/10 07:00:02;;;;;;;9.73;2.17;;;;;;;;;;5094278;28;20032;-29
2023/01/10 07:02:28;;;;;;;10.73;2.35;;;;;;;;;;5094347;28;20027;-28
2023/01/10 07:04:55;;;;;;;10.40;2.38;;;;;;;;;;5072954;28;20147;-28
2023/01/10 07:07:22;;;;;;;11.77;2.58;;;;;;;;;;5074206;28;20025;-28
2023/01/10 07:09:48;;;;;;;10.82;3.08;;;;;;;;;;5073306;28;20036;-28
2023/01/10 07:12:14;;;;;;;13.77;4.35;;;;;;;;;;5074103;28;20123;-29
2023/01/10 07:14:40;;;;;;;16.60;3.50;;;;;;;;;;5074468;28;20362;-28
2023/01/10 07:17:07;;;;;;;15.32;3.63;;;;;;;;;;5073081;28;20035;-28
2023/01/10 07:19:33;;;;;;;14.23;3.00;;;;;;;;;;5073131;28;20034;-29
2023/01/10 07:21:59;;;;;;;10.60;2.97;;;;;;;;;;5074052;28;20067;-28
2023/01/10 07:24:25;;;;;;;9.93;3.28;;;;;;;;;;5074348;28;20089;-28
2023/01/10 07:26:54;;;;;;;12.55;2.88;;;;;;;;;;5073801;28;20024;-28
2023/01/10 07:29:20;;;;;;;21.45;3.78;;;;;;;;;;5074301;28;20107;-29
2023/01/10 07:31:46;;;;;;;12.60;3.00;;;;;;;;;;5073972;28;20017;-29
2023/01/10 07:34:12;;;;;;;7.93;2.80;;;;;;;;;;5074327;28;20071;-29
2023/01/10 07:36:38;;;;;;;14.90;3.90;;;;;;;;;;5073873;28;20024;-29
2023/01/10 07:39:05;;;;;;;11.55;3.17;;;;;;;;;;5074006;28;20018;-29
2023/01/10 07:41:31;;;;;;;12.70;2.50;;;;;;;;;;5073936;28;20103;-29
2023/01/10 07:43:57;;;;;;;13.73;3.97;;;;;;;;;;5073974;28;20028;-29
2023/01/10 07:46:23;;;;;;;8.80;3.10;;;;;;;;;;5073983;28;20505;-29
2023/01/10 07:48:50;;;;;;;4.57;2.13;;;;;;;;;;5073322;28;20440;-28
2023/01/10 07:51:16;;;;;;;14.23;3.25;;;;;;;;;;5074671;28;20037;-28
2023/01/10 07:53:42;;;;;;;7.57;2.47;;;;;;;;;;5073780;28;20491;-29
2023/01/10 07:56:08;;;;;;;11.75;3.15;;;;;;;;;;5073906;28;20405;-29
2023/01/10 07:58:35;;;;;;;6.88;2.40;;;;;;;;;;5074097;28;20352;-29
2023/01/10 08:01:02;;;;;;;6.63;2.40;;;;;;;;;;5072846;28;20036;-28
2023/01/10 08:03:29;;;;;;;6.90;2.58;;;;;;;;;;5081477;28;20047;-28
2023/01/10 08:06:02;;;;;;;16.00;3.67;;;;;;;;;;5094244;28;20382;-29
2023/01/10 08:08:29;;;;;;;13.60;2.80;;;;;;;;;;5059573;28;20504;-28
2023/01/10 08:10:55;;;;;;;9.02;2.72;;;;;;;;;;5094325;28;20036;-28
2023/01/10 08:13:23;;;;;;;5.40;2.80;;;;;;;;;;5094043;28;20031;-28
2023/01/10 08:15:50;;;;;;;9.73;3.42;;;;;;;;;;5076203;28;20050;-28
2023/01/10 08:18:16;;;;;;;12.90;2.83;;;;;;;;;;5093845;28;20111;-28
2023/01/10 08:20:43;;;;;;;9.02;3.10;;;;;;;;;;5093881;28;20370;-29
2023/01/10 08:23:09;;;;;;;8.85;2.78;;;;;;;;;;5093829;28;20078;-28
2023/01/10 08:25:35;;;;;;;11.63;2.42;;;;;;;;;;5093825;28;20024;-28
2023/01/10 08:28:01;;;;;;;11.10;3.13;;;;;;;;;;5093963;28;20028;-28
2023/01/10 08:30:28;;;;;;;14.70;3.38;;;;;;;;;;5093682;28;20054;-28
2023/01/10 08:32:54;;;;;;;9.27;3.20;;;;;;;;;;5093612;28;20032;-28
2023/01/10 08:35:20;;;;;;;21.33;4.38;;;;;;;;;;5094018;28;20020;-27
2023/01/10 08:37:46;;;;;;;23.52;3.78;;;;;;;;;;5093937;28;20064;-28
2023/01/10 08:40:12;;;;;;;26.80;4.85;;;;;;;;;;5096005;28;20040;-28
2023/01/10 08:42:38;;;;;;;18.08;4.35;;;;;;;;;;5097512;28;20024;-28
2023/01/10 08:45:05;;;;;;;27.73;4.20;;;;;;;;;;5097003;28;20461;-29
2023/01/10 08:47:31;;;;;;;15.20;3.60;;;;;;;;;;5079276;28;20040;-28
2023/01/10 08:49:57;;;;;;;24.45;4.40;;;;;;;;;;5097179;28;20108;-28
2023/01/10 08:52:23;;;;;;;27.88;3.83;;;;;;;;;;5079022;28;20504;-28
2023/01/10 08:54:50;;;;;;;16.52;3.97;;;;;;;;;;5097338;28;20366;-30
2023/01/10 08:57:16;;;;;;;35.42;6.47;;;;;;;;;;5097114;28;20051;-27
2023/01/10 08:59:42;;;;;;;25.85;4.07;;;;;;;;;;5097071;28;20443;-28
2023/01/10 09:02:12;;;;;;;11.95;3.35;;;;;;;;;;5096588;28;20443;-28
2023/01/10 09:04:38;;;;;;;11.95;2.92;;;;;;;;;;5096748;28;20093;-28
2023/01/10 09:07:04;;;;;;;5.20;2.33;;;;;;;;;;5079643;28;20020;-28
2023/01/10 09:09:31;;;;;;;4.55;2.35;;;;;;;;;;5096951;28;20040;-27
2023/01/10 09:11:57;;;;;;;9.23;3.17;;;;;;;;;;5096428;28;20350;-27
2023/01/10 09:14:23;;;;;;;7.43;2.75;;;;;;;;;;5096658;28;20039;-28
2023/01/10 09:16:51;;;;;;;9.85;3.15;;;;;;;;;;5096728;28;20024;-28
2023/01/10 09:19:17;;;;;;;7.50;2.80;;;;;;;;;;5097037;28;20031;-28
2023/01/10 09:21:43;;;;;;;9.95;2.88;;;;;;;;;;5096465;28;20123;-28
2023/01/10 09:24:10;;;;;;;7.68;2.72;;;;;;;;;;5096771;28;20020;-27
2023/01/10 09:26:36;;;;;;;11.65;3.33;;;;;;;;;;5096447;28;20022;-30
2023/01/10 09:29:02;;;;;;;10.82;2.70;;;;;;;;;;5096340;28;20032;-27
2023/01/10 09:31:28;;;;;;;9.32;2.53;;;;;;;;;;5096311;28;20035;-28
2023/01/10 09:33:54;;;;;;;12.75;4.50;;;;;;;;;;5096090;28;20036;-28
2023/01/10 09:36:20;;;;;;;13.13;3.03;;;;;;;;;;5096340;28;20081;-28
2023/01/10 09:38:47;;;;;;;7.20;2.90;;;;;;;;;;5096123;28;20032;-27
2023/01/10 09:41:31;;;;;;;5.82;2.58;;;;;;;;;;5096484;28;20035;-28
2023/01/10 09:43:57;;;;;;;12.25;4.20;;;;;;;;;;5096304;28;20034;-28
2023/01/10 09:47:02;;;;;;;9.18;3.08;;;;;;;;;;5096071;28;20116;-28
2023/01/10 09:49:48;;;;;;;12.90;3.35;;;;;;;;;;5034017;28;20029;-28
2023/01/10 09:52:26;;;;;;;7.57;3.15;;;;;;;;;;5014473;28;20040;-28
2023/01/10 09:54:53;;;;;;;18.15;3.50;;;;;;;;;;5077052;28;20442;-27
2023/01/10 09:57:20;;;;;;;13.82;4.13;;;;;;;;;;5095946;28;20401;-28
2023/01/10 09:59:50;;;;;;;7.97;2.60;;;;;;;;;;5077908;28;20028;-27
2023/01/10 10:02:45;;;;;;;8.68;3.17;;;;;;;;;;5077929;28;20093;-28
2023/01/10 10:05:16;;;;;;;11.23;2.92;;;;;;;;;;5051317;28;20055;-28
2023/01/10 10:07:42;;;;;;;;;;;;;;;;;;5056030;28;20103;-28
2023/01/10 10:10:22;;;;;;;15.00;3.22;;;;;;;;;;5055588;28;19909;-28
2023/01/10 10:13:01;;;;;;;7.47;3.28;;;;;;;;;;5055747;28;20064;-28
2023/01/10 10:15:27;;;;;;;10.45;4.38;;;;;;;;;;5055552;28;20037;-28
2023/01/10 10:17:56;;;;;;;7.05;3.10;;;;;;;;;;5054447;28;20428;-28
2023/01/10 10:20:43;;;;;;;12.25;3.42;;;;;;;;;;5055186;28;20094;-28
2023/01/10 10:23:18;;;;;;;11.48;3.13;;;;;;;;;;5055343;28;20024;-28
2023/01/10 10:26:01;;;;;;;12.55;3.22;;;;;;;;;;5055389;28;20032;-28
2023/01/10 10:28:36;;;;;;;8.10;3.15;;;;;;;;;;5055334;28;20021;-28
2023/01/10 10:31:02;;;;;;;15.15;2.80;;;;;;;;;;5054877;28;20029;-28
2023/01/10 10:33:31;;;;;;;7.93;2.95;;;;;;;;;;5054792;28;20078;-28
2023/01/10 10:36:17;;;;;;;8.98;2.60;;;;;;;;;;5055141;28;20029;-28
2023/01/10 10:38:46;;;;;;;8.98;4.90;;;;;;;;;;5054650;28;20368;-28
2023/01/10 10:41:16;;;;;;;14.68;3.33;;;;;;;;;;5054740;28;20166;-28
2023/01/10 10:43:45;;;;;;;12.60;3.25;;;;;;;;;;5055084;28;20570;-28
2023/01/10 10:46:13;;;;;;;17.20;3.83;;;;;;;;;;5054847;28;20460;-27
2023/01/10 10:48:42;;;;;;;12.30;3.53;;;;;;;;;;5054715;28;20025;-27
2023/01/10 10:51:19;;;;;;;14.93;2.83;;;;;;;;;;5054998;28;20095;-28
2023/01/10 10:53:47;;;;;;;13.63;4.05;;;;;;;;;;5054504;28;20032;-29
2023/01/10 10:56:15;;;;;;;16.30;2.88;;;;;;;;;;5054504;28;20040;-30
2023/01/10 10:58:42;;;;;;;12.07;4.15;;;;;;;;;;5054699;28;20122;-30
2023/01/10 11:01:15;;;;;;;15.77;3.75;;;;;;;;;;5054524;28;20083;-30
2023/01/10 11:03:44;;;;;;;6.72;2.40;;;;;;;;;;5073180;28;20036;-28
2023/01/10 11:06:10;;;;;;;8.40;2.53;;;;;;;;;;5094841;28;20023;-28
2023/01/10 11:08:42;;;;;;;10.88;3.20;;;;;;;;;;5094884;28;20048;-28
2023/01/10 11:11:32;;;;;;;7.40;2.78;;;;;;;;;;5076835;28;20036;-28
2023/01/10 11:14:06;;;;;;;15.70;3.10;;;;;;;;;;5086898;28;20052;-30
2023/01/10 11:16:35;;;;;;;15.50;3.78;;;;;;;;;;5094361;28;20390;-28
2023/01/10 11:19:17;;;;;;;11.35;3.78;;;;;;;;;;5094610;28;20028;-28
2023/01/10 11:21:50;;;;;;;10.57;4.38;;;;;;;;;;5094866;28;20075;-28
2023/01/10 11:24:39;;;;;;;11.57;5.15;;;;;;;;;;5094599;28;20374;-28
2023/01/10 11:27:14;;;;;;;10.90;3.97;;;;;;;;;;5086166;28;20036;-28
2023/01/10 11:29:46;;;;;;;23.05;5.40;;;;;;;;;;5094477;28;20350;-29
2023/01/10 11:32:24;;;;;;;8.57;3.85;;;;;;;;;;5093928;28;20027;-29
2023/01/10 11:34:52;;;;;;;10.27;3.47;;;;;;;;;;5093633;28;20089;-28
2023/01/10 11:37:19;;;;;;;19.20;5.50;;;;;;;;;;5075984;28;20165;-28
2023/01/10 11:39:45;;;;;;;20.38;4.07;;;;;;;;;;5093896;28;20327;-28
2023/01/10 11:42:28;;;;;;;22.27;4.20;;;;;;;;;;5094018;28;20035;-28
2023/01/10 11:44:54;;;;;;;10.65;3.50;;;;;;;;;;5094428;28;20392;-27
2023/01/10 11:47:20;;;;;;;20.27;4.20;;;;;;;;;;5076357;28;20402;-28
2023/01/10 11:49:48;;;;;;;13.02;3.25;;;;;;;;;;5093985;28;20049;-28
2023/01/10 11:52:17;;;;;;;11.25;3.78;;;;;;;;;;5093875;28;20132;-28
2023/01/10 11:54:44;;;;;;;14.88;3.38;;;;;;;;;;5094018;28;20020;-28
2023/01/10 11:57:18;;;;;;;20.75;3.40;;;;;;;;;;5094027;28;20349;-28
2023/01/10 11:59:52;;;;;;;11.38;3.33;;;;;;;;;;5093906;28;20024;-28
2023/01/10 12:02:27;;;;;;;12.48;3.80;;;;;;;;;;5093868;28;20024;-28
2023/01/10 12:04:55;;;;;;;10.13;3.33;;;;;;;;;;5094091;28;20115;-28
2023/01/10 12:07:21;;;;;;;7.90;3.42;;;;;;;;;;5093829;28;20477;-28
2023/01/10 12:09:47;;;;;;;12.13;3.42;;;;;;;;;;5093988;28;20024;-28
2023/01/10 12:12:21;;;;;;;12.82;3.58;;;;;;;;;;5094060;28;20023;-28
2023/01/10 12:14:47;;;;;;;6.00;2.90;;;;;;;;;;5097481;28;20020;-27
2023/01/10 12:17:34;;;;;;;12.73;3.20;;;;;;;;;;5079881;28;20118;-28
2023/01/10 12:20:01;;;;;;;11.65;3.15;;;;;;;;;;5097624;28;20028;-28
2023/01/10 12:22:35;;;;;;;13.07;3.47;;;;;;;;;;5097853;28;20095;-28
2023/01/10 12:25:03;;;;;;;12.48;3.28;;;;;;;;;;5097664;28;20059;-27
2023/01/10 12:27:29;;;;;;;8.52;2.80;;;;;;;;;;5097667;28;20453;-28
2023/01/10 12:30:00;;;;;;;8.05;3.78;;;;;;;;;;5097494;28;20024;-28
2023/01/10 12:32:30;;;;;;;17.05;3.58;;;;;;;;;;5097644;28;20095;-28
2023/01/10 12:34:59;;;;;;;14.40;3.47;;;;;;;;;;5098188;28;20036;-28
2023/01/10 12:37:44;;;;;;;8.20;3.38;;;;;;;;;;5097452;28;20028;-28
2023/01/10 12:40:14;;;;;;;12.68;3.45;;;;;;;;;;5097201;28;20050;-28
2023/01/10 12:45:31;;;;;;;;;;;;;;;;;;5097772;28;20035;-28
2023/01/10 12:47:57;;;;;;;10.10;3.97;;;;;;;;;;5097284;28;19912;-28
2023/01/10 12:50:31;;;;;;;8.35;2.60;;;;;;;;;;5097186;28;20083;-28
2023/01/10 12:53:03;;;;;;;13.27;3.78;;;;;;;;;;5097319;28;20081;-28
2023/01/10 12:55:32;;;;;;;15.20;3.30;;;;;;;;;;5097079;28;20028;-28
2023/01/10 12:58:03;;;;;;;13.10;3.78;;;;;;;;;;5097242;28;20039;-27
2023/01/10 13:00:32;;;;;;;10.63;3.08;;;;;;;;;;5097286;28;20024;-27
2023/01/10 13:02:59;;;;;;;15.15;5.05;;;;;;;;;;5096954;28;20040;-28
2023/01/10 13:05:31;;;;;;;12.80;3.63;;;;;;;;;;5097023;28;20099;-27
2023/01/10 13:08:03;;;;;;;13.32;3.40;;;;;;;;;;5096803;28;20028;-27
2023/01/10 13:10:30;;;;;;;20.25;4.45;;;;;;;;;;5078996;28;20032;-27
2023/01/10 13:13:00;;;;;;;24.08;4.15;;;;;;;;;;5096577;28;20031;-28
2023/01/10 13:15:32;;;;;;;18.60;3.90;;;;;;;;;;5096957;28;20081;-28
2023/01/10 13:18:01;;;;;;;18.55;5.43;;;;;;;;;;5096923;28;20020;-28
2023/01/10 13:20:37;;;;;;;11.57;3.65;;;;;;;;;;5096751;28;20036;-28
2023/01/10 13:23:13;;;;;;;8.52;3.20;;;;;;;;;;5078680;28;20073;-29
2023/01/10 13:25:39;;;;;;;12.82;4.63;;;;;;;;;;5096130;28;20387;-29
2023/01/10 13:28:20;;;;;;;11.07;3.75;;;;;;;;;;5096507;28;20354;-29
2023/01/10 13:30:51;;;;;;;10.25;3.60;;;;;;;;;;5096661;28;20028;-29
2023/01/10 13:33:22;;;;;;;16.45;4.43;;;;;;;;;;5096216;28;20528;-29
2023/01/10 13:35:48;;;;;;;33.20;4.83;;;;;;;;;;5096348;28;20344;-30
2023/01/10 13:38:17;;;;;;;24.17;4.95;;;;;;;;;;5078315;28;20046;-29
2023/01/10 13:40:55;;;;;;;25.35;5.55;;;;;;;;;;5096264;28;20109;-29
2023/01/10 13:43:33;;;;;;;18.33;4.32;;;;;;;;;;5096101;28;20028;-29
2023/01/10 13:46:14;;;;;;;13.90;4.03;;;;;;;;;;5096003;28;20038;-28
2023/01/10 13:48:40;;;;;;;;;;;;;;;;;;5096310;28;20119;-29
2023/01/10 13:51:17;;;;;;;13.48;3.75;;;;;;;;;;5095957;28;20330;-29
2023/01/10 13:53:45;;;;;;;18.23;3.80;;;;;;;;;;5095798;28;20032;-29
2023/01/10 13:56:30;;;;;;;29.83;4.75;;;;;;;;;;5095704;28;20035;-28
2023/01/10 14:04:29;;;;;;;28.38;5.97;;;;;;;;;;5095638;28;20063;-29
2023/01/10 14:06:59;;;;;;;20.27;4.63;;;;;;;;;;5078310;28;20454;-29
2023/01/10 14:09:35;;;;;;;15.23;3.60;;;;;;;;;;5095629;28;20119;-28
2023/01/10 14:12:02;;;;;;;20.33;3.90;;;;;;;;;;5095894;28;20174;-29
2023/01/10 14:14:28;;;;;;;12.10;3.60;;;;;;;;;;5095826;28;20123;-29
2023/01/10 14:16:56;;;;;;;10.10;3.28;;;;;;;;;;5095903;28;20028;-28
2023/01/10 14:19:24;;;;;;;18.23;4.32;;;;;;;;;;5095650;28;20055;-28
2023/01/10 14:21:54;;;;;;;8.48;3.03;;;;;;;;;;5095420;28;20039;-28
2023/01/10 14:24:35;;;;;;;16.65;3.70;;;;;;;;;;5095504;28;20028;-28
2023/01/10 14:27:03;;;;;;;11.32;3.65;;;;;;;;;;5095479;28;20056;-28
2023/01/10 14:29:31;;;;;;;11.82;3.25;;;;;;;;;;5095293;28;20031;-29
2023/01/10 14:31:58;;;;;;;15.43;3.80;;;;;;;;;;5095158;28;20058;-28
2023/01/10 14:34:28;;;;;;;11.43;3.20;;;;;;;;;;5095508;28;20027;-28
2023/01/10 14:37:16;;;;;;;13.40;3.15;;;;;;;;;;5094095;28;20040;-29
2023/01/10 14:39:43;;;;;;;12.55;4.15;;;;;;;;;;5095400;28;20027;-28
2023/01/10 14:42:13;;;;;;;15.50;3.33;;;;;;;;;;5094900;28;20028;-29
2023/01/10 14:44:51;;;;;;;18.23;3.67;;;;;;;;;;5095478;28;20046;-29
2023/01/10 14:47:30;;;;;;;16.52;3.22;;;;;;;;;;5095313;28;20077;-28
2023/01/10 14:49:59;;;;;;;13.18;3.40;;;;;;;;;;5095271;28;20032;-28
2023/01/10 14:52:25;;;;;;;13.77;3.33;;;;;;;;;;5095110;28;20043;-28
2023/01/10 14:55:02;;;;;;;18.65;5.50;;;;;;;;;;5094890;28;20337;-28
2023/01/10 14:57:28;;;;;;;20.23;4.90;;;;;;;;;;5094881;28;20489;-29
2023/01/10 15:00:09;;;;;;;16.92;4.22;;;;;;;;;;5094797;28;20024;-28
2023/01/10 15:02:35;;;;;;;18.90;3.85;;;;;;;;;;5094538;28;20089;-28